createdAt,value
2022-10-05T03:53:08.157Z,9.02
2022-10-05T03:55:54.352Z,8.73
2022-10-05T03:58:50.985Z,9.00
2022-10-05T04:01:22.365Z,6.43
2022-10-05T04:03:52.726Z,8.75
2022-10-05T04:06:22.957Z,7.18
2022-10-05T04:08:57.704Z,8.20
2022-10-05T04:11:29.393Z,8.05
2022-10-05T04:13:58.886Z,8.00
2022-10-05T04:16:30.912Z,7.63
2022-10-05T04:19:02.922Z,7.45
2022-10-05T04:21:46.757Z,6.20
2022-10-05T04:24:19.068Z,8.07
2022-10-05T04:26:48.483Z,9.18
2022-10-05T04:29:34.681Z,7.13
2022-10-05T04:32:10.286Z,8.70
2022-10-05T04:34:53.706Z,7.17
2022-10-05T04:37:46.751Z,9.60
2022-10-05T04:40:54.946Z,7.63
2022-10-05T04:43:30.536Z,7.80
2022-10-05T04:46:41.915Z,9.15
2022-10-05T04:49:41.918Z,11.33
2022-10-05T04:52:32.753Z,9.15
2022-10-05T04:55:02.073Z,9.35
2022-10-05T04:57:54.672Z,10.02
2022-10-05T05:00:23.371Z,10.52
2022-10-05T05:02:55.866Z,10.70
2022-10-05T05:05:28.710Z,6.57
2022-10-05T05:08:16.089Z,10.05
2022-10-05T05:11:03.870Z,12.68
2022-10-05T05:14:07.710Z,10.32
2022-10-05T05:16:42.301Z,6.93
2022-10-05T05:19:32.565Z,11.07
2022-10-05T05:22:06.946Z,10.30
2022-10-05T05:25:05.982Z,8.18
2022-10-05T05:27:40.432Z,9.05
2022-10-05T05:30:06.862Z,9.37
2022-10-05T05:32:57.356Z,11.98
2022-10-05T05:35:59.321Z,8.80
2022-10-05T05:38:44.520Z,11.07
2022-10-05T05:41:17.282Z,10.63
2022-10-05T05:44:03.421Z,12.10
2022-10-05T05:47:02.484Z,9.25
2022-10-05T05:50:07.397Z,8.98
2022-10-05T05:52:44.818Z,10.70
2022-10-05T05:55:20.358Z,9.40
2022-10-05T05:57:53.201Z,12.73
2022-10-05T06:00:23.330Z,11.90
2022-10-05T06:03:01.397Z,8.52
2022-10-05T06:05:33.878Z,11.00
2022-10-05T06:08:05.951Z,9.32
2022-10-05T06:10:41.389Z,10.63
2022-10-05T06:13:29.023Z,9.55
2022-10-05T06:16:04.485Z,9.95
2022-10-05T06:18:31.918Z,8.63
2022-10-05T06:21:22.173Z,8.93
2022-10-05T06:24:15.771Z,12.23
2022-10-05T06:27:05.355Z,12.77
2022-10-05T06:29:53.345Z,17.90
2022-10-05T06:32:30.125Z,13.52
2022-10-05T06:35:22.179Z,13.60
2022-10-05T06:37:48.587Z,18.63
2022-10-05T06:40:33.423Z,15.13
2022-10-05T06:43:25.438Z,12.82
2022-10-05T06:46:07.140Z,13.05
2022-10-05T06:48:55.500Z,14.68
2022-10-05T06:51:34.309Z,12.67
2022-10-05T06:54:28.576Z,13.40
2022-10-05T06:57:28.221Z,16.58
2022-10-05T07:00:07.543Z,12.48
2022-10-05T07:02:37.007Z,15.75
2022-10-05T07:05:12.372Z,15.63
2022-10-05T07:07:51.523Z,13.02
2022-10-05T07:10:33.858Z,13.27
2022-10-05T07:13:09.611Z,12.57
2022-10-05T07:15:49.415Z,12.93
2022-10-05T07:18:43.235Z,13.80
2022-10-05T07:21:28.010Z,11.75
2022-10-05T07:24:34.230Z,13.38
2022-10-05T07:27:03.674Z,12.70
2022-10-05T07:29:42.671Z,11.27
2022-10-05T07:32:35.125Z,17.33
2022-10-05T07:35:44.327Z,9.75
2022-10-05T07:38:32.980Z,15.07
2022-10-05T07:41:06.545Z,10.38
2022-10-05T07:44:12.523Z,9.38
2022-10-05T07:46:51.120Z,11.93
2022-10-05T07:49:21.804Z,11.18
2022-10-05T07:51:55.913Z,10.20
2022-10-05T07:54:26.868Z,14.38
2022-10-05T07:57:01.952Z,10.57
2022-10-05T07:59:31.043Z,11.83
2022-10-05T08:02:11.497Z,11.10
2022-10-05T08:04:51.374Z,10.57
2022-10-05T08:07:18.213Z,14.30
2022-10-05T08:10:16.010Z,14.65
2022-10-05T08:13:04.229Z,14.57
2022-10-05T08:15:39.591Z,11.63
2022-10-05T08:18:14.698Z,12.43
2022-10-05T08:20:47.249Z,12.77
2022-10-05T08:23:48.176Z,12.02
2022-10-05T08:26:26.573Z,12.83
2022-10-05T08:29:13.808Z,14.38
2022-10-05T08:31:44.514Z,22.65
2022-10-05T08:34:29.634Z,18.98
2022-10-05T08:37:00.925Z,18.77
2022-10-05T08:39:30.749Z,16.30
2022-10-05T08:42:04.188Z,17.92
2022-10-05T08:44:48.995Z,14.98
2022-10-05T08:47:19.814Z,16.13
2022-10-05T08:50:13.867Z,18.90
2022-10-05T08:53:12.391Z,17.03
2022-10-05T08:56:04.794Z,18.65
2022-10-05T08:58:37.651Z,15.63
2022-10-05T09:01:04.098Z,16.77
2022-10-05T09:04:01.313Z,17.10
2022-10-05T09:06:52.030Z,18.53
2022-10-05T09:10:06.891Z,19.17
2022-10-05T09:12:51.525Z,19.50
2022-10-05T09:15:35.269Z,20.60
2022-10-05T09:18:46.086Z,21.02
2022-10-05T09:21:34.991Z,16.77
2022-10-05T09:24:24.686Z,17.20
2022-10-05T09:27:08.285Z,17.90
2022-10-05T09:29:49.840Z,16.08
2022-10-05T09:32:35.845Z,16.95
2022-10-05T09:35:54.329Z,14.93
2022-10-05T09:38:50.265Z,11.98
2022-10-05T09:41:53.791Z,11.63
2022-10-05T09:45:08.374Z,10.50
2022-10-05T09:48:13.275Z,13.23
2022-10-05T09:51:07.654Z,11.73
2022-10-05T09:53:54.255Z,11.65
2022-10-05T09:56:24.972Z,11.43
2022-10-05T09:59:07.672Z,8.90
2022-10-05T10:01:54.391Z,12.63
2022-10-05T10:04:49.062Z,11.80
2022-10-05T10:07:45.138Z,11.32
2022-10-05T10:10:45.618Z,11.80
2022-10-05T10:13:45.641Z,10.15
2022-10-05T10:16:44.146Z,13.73
2022-10-05T10:19:30.202Z,9.27
2022-10-05T10:22:11.946Z,10.18
2022-10-05T10:25:12.673Z,11.68
2022-10-05T10:28:17.935Z,10.82
2022-10-05T10:31:06.078Z,11.00
2022-10-05T10:34:10.393Z,9.43
2022-10-05T10:36:55.718Z,8.45
2022-10-05T10:39:45.231Z,8.57
2022-10-05T10:42:36.670Z,10.18
2022-10-05T10:45:22.841Z,8.52
2022-10-05T10:48:38.498Z,11.47
2022-10-05T10:51:23.930Z,9.40
2022-10-05T10:54:17.453Z,8.88
2022-10-05T10:57:15.375Z,9.70
2022-10-05T10:59:55.342Z,9.80
2022-10-05T11:02:44.548Z,9.77
2022-10-05T11:05:31.937Z,9.02
2022-10-05T11:08:16.133Z,9.95
2022-10-05T11:11:13.373Z,11.57
2022-10-05T11:14:02.517Z,12.00
2022-10-05T11:17:23.412Z,11.37
2022-10-05T11:20:27.985Z,11.18
2022-10-05T11:23:34.217Z,11.77
2022-10-05T11:26:17.740Z,10.77
2022-10-05T11:28:55.388Z,11.13
2022-10-05T11:31:57.974Z,14.37
2022-10-05T11:34:54.779Z,9.95
2022-10-05T11:37:28.904Z,13.95
2022-10-05T11:40:01.468Z,13.68
2022-10-05T11:42:58.985Z,16.23
2022-10-05T11:46:05.365Z,13.67
2022-10-05T11:48:46.625Z,12.27
2022-10-05T11:51:41.200Z,12.95
2022-10-05T11:55:09.442Z,11.57
2022-10-05T11:57:34.834Z,13.70
2022-10-05T12:00:20.944Z,13.77
2022-10-05T12:02:56.478Z,13.10
2022-10-05T12:05:27.322Z,15.40
2022-10-05T12:08:25.781Z,12.35
2022-10-05T12:10:57.800Z,10.30
2022-10-05T12:13:50.547Z,12.70
2022-10-05T12:16:27.510Z,12.55
2022-10-05T12:19:08.494Z,11.05
2022-10-05T12:21:45.222Z,13.45
2022-10-05T12:24:26.962Z,9.65
2022-10-05T12:27:02.959Z,11.33
2022-10-05T12:29:40.529Z,10.25
2022-10-05T12:32:11.620Z,10.75
2022-10-05T12:35:03.387Z,9.55
2022-10-05T12:37:41.094Z,11.20
2022-10-05T12:40:24.615Z,8.43
2022-10-05T12:43:09.957Z,9.52
2022-10-05T12:45:36.347Z,9.85
2022-10-05T12:48:18.730Z,12.20
2022-10-05T12:51:20.119Z,8.98
2022-10-05T12:53:57.670Z,10.70
2022-10-05T12:56:31.813Z,12.73
2022-10-05T12:59:36.979Z,8.63
2022-10-05T13:02:19.878Z,7.00
2022-10-05T13:05:10.840Z,7.40
2022-10-05T13:08:03.838Z,7.57
2022-10-05T13:10:45.787Z,6.43
2022-10-05T13:13:15.140Z,7.05
2022-10-05T13:15:52.192Z,4.95
2022-10-05T13:18:24.769Z,6.07
2022-10-05T13:21:35.226Z,6.03
2022-10-05T13:24:07.895Z,6.85
2022-10-05T13:26:35.652Z,7.38
2022-10-05T13:29:29.544Z,5.50
2022-10-05T13:32:19.064Z,7.03
2022-10-05T13:35:19.239Z,7.47
2022-10-05T13:38:07.099Z,6.72
2022-10-05T13:40:49.766Z,7.50
2022-10-05T13:43:25.014Z,5.90
2022-10-05T13:46:40.473Z,5.50
2022-10-05T13:49:22.073Z,5.63
2022-10-05T13:52:10.044Z,6.25
2022-10-05T13:55:00.690Z,4.60
2022-10-05T13:57:47.030Z,5.75
2022-10-05T14:00:24.214Z,5.20
2022-10-05T14:02:56.386Z,8.17
2022-10-05T14:05:32.236Z,5.80
2022-10-05T14:08:18.946Z,8.55
2022-10-05T14:10:47.120Z,6.95
2022-10-05T14:13:21.511Z,8.00
2022-10-05T14:16:13.367Z,5.70
2022-10-05T14:18:52.534Z,7.97
2022-10-05T14:21:24.895Z,6.93
2022-10-05T14:23:51.978Z,7.18
2022-10-05T14:26:24.566Z,6.88
2022-10-05T14:29:17.671Z,9.23
2022-10-05T14:31:47.940Z,7.20
2022-10-05T14:34:26.893Z,9.68
2022-10-05T14:37:20.569Z,8.68
2022-10-05T14:39:48.995Z,6.93
2022-10-05T14:42:18.814Z,6.30
2022-10-05T14:44:46.527Z,9.35
2022-10-05T14:47:24.015Z,9.13
2022-10-05T14:50:10.869Z,8.73
2022-10-05T14:56:51.281Z,8.23
2022-10-05T14:59:28.963Z,7.28
2022-10-05T15:02:32.066Z,8.50
2022-10-05T15:05:17.687Z,7.90
2022-10-05T15:07:48.156Z,10.10
2022-10-05T15:11:04.367Z,7.93
2022-10-05T15:13:34.438Z,6.93
2022-10-05T15:16:06.558Z,10.57
2022-10-05T15:18:37.254Z,8.38
2022-10-05T15:21:22.497Z,11.35
2022-10-05T15:23:53.736Z,6.70
2022-10-05T15:26:36.284Z,7.88
2022-10-05T15:29:41.886Z,6.72
2022-10-05T15:32:26.786Z,6.78
2022-10-05T15:35:05.977Z,7.70
2022-10-05T15:37:43.695Z,9.47
2022-10-05T15:40:23.627Z,9.70
2022-10-05T15:42:53.142Z,7.93
2022-10-05T15:45:32.318Z,8.93
2022-10-05T15:48:04.857Z,8.25
2022-10-05T15:50:56.888Z,8.97
2022-10-05T15:53:33.204Z,8.52
2022-10-05T15:56:03.914Z,11.30
2022-10-05T15:59:01.243Z,14.82
2022-10-05T16:01:33.863Z,9.48
2022-10-05T16:04:20.822Z,8.97
2022-10-05T16:07:34.045Z,6.85
2022-10-05T16:10:12.643Z,8.48
2022-10-05T16:12:42.641Z,8.90
2022-10-05T16:15:43.643Z,8.68
2022-10-05T16:18:21.933Z,10.77
2022-10-05T16:20:52.430Z,7.07
2022-10-05T16:23:24.575Z,8.38
2022-10-05T16:26:03.745Z,10.13
2022-10-05T16:28:39.366Z,8.68
2022-10-05T16:31:08.466Z,10.63
2022-10-05T16:33:52.784Z,9.50
2022-10-05T16:36:35.762Z,11.77
2022-10-05T16:39:13.207Z,10.43
2022-10-05T16:41:48.930Z,8.10
2022-10-05T16:44:24.290Z,8.50
2022-10-05T16:47:32.870Z,8.35
2022-10-05T16:50:44.280Z,10.13
2022-10-05T16:53:19.486Z,10.75
2022-10-05T16:55:52.440Z,9.30
2022-10-05T16:58:25.473Z,10.67
2022-10-05T17:01:41.873Z,9.13
2022-10-05T17:04:54.239Z,8.30
2022-10-05T17:07:29.363Z,10.98
2022-10-05T17:10:05.396Z,12.88
2022-10-05T17:12:55.777Z,11.50
2022-10-05T17:16:00.615Z,10.02
2022-10-05T17:19:08.595Z,11.68
2022-10-05T17:21:44.363Z,10.85
2022-10-05T17:24:46.070Z,11.02
2022-10-05T17:27:30.950Z,10.60
2022-10-05T17:30:19.322Z,11.73
2022-10-05T17:33:05.106Z,11.60
2022-10-05T17:35:42.745Z,13.25
2022-10-05T17:38:35.109Z,10.40
2022-10-05T17:41:21.089Z,11.70
2022-10-05T17:44:13.421Z,12.75
2022-10-05T17:46:47.827Z,12.73
2022-10-05T17:49:14.205Z,12.60
2022-10-05T17:51:59.221Z,14.00
2022-10-05T17:54:48.232Z,11.03
2022-10-05T17:57:24.983Z,11.23
2022-10-05T17:59:55.726Z,13.35
2022-10-05T18:02:40.355Z,11.68
2022-10-05T18:05:12.705Z,14.02
2022-10-05T18:07:40.694Z,11.97
2022-10-05T18:10:09.914Z,12.65
2022-10-05T18:12:36.553Z,10.32
2022-10-05T18:15:08.669Z,13.55
2022-10-05T18:17:44.966Z,14.85
2022-10-05T18:20:26.580Z,15.90
2022-10-05T18:23:03.395Z,11.82
2022-10-05T18:25:33.695Z,11.20
2022-10-05T18:28:20.061Z,11.40
2022-10-05T18:31:17.432Z,12.25
2022-10-05T18:33:47.267Z,14.60
2022-10-05T18:36:22.840Z,12.50
2022-10-05T18:38:59.094Z,14.43
2022-10-05T18:42:02.184Z,14.90
2022-10-05T18:44:36.354Z,12.77
2022-10-05T18:47:46.531Z,12.57
2022-10-05T18:50:21.472Z,13.77
2022-10-05T18:53:14.653Z,13.10
2022-10-05T18:55:58.854Z,13.38
2022-10-05T18:58:37.018Z,20.77
2022-10-05T19:01:27.948Z,17.10
2022-10-05T19:04:22.182Z,18.90
2022-10-05T19:07:08.778Z,12.75
2022-10-05T19:09:51.483Z,16.35
2022-10-05T19:12:43.018Z,17.45
2022-10-05T19:15:23.061Z,13.17
2022-10-05T19:17:58.606Z,15.57
2022-10-05T19:20:35.552Z,14.57
2022-10-05T19:23:32.337Z,15.70
2022-10-05T19:26:15.739Z,16.40
2022-10-05T19:28:55.894Z,15.97
2022-10-05T19:31:40.792Z,13.55
2022-10-05T19:34:33.308Z,14.30
2022-10-05T19:37:14.620Z,15.55
2022-10-05T19:40:15.912Z,12.85
2022-10-05T19:42:53.957Z,16.77
2022-10-05T19:45:20.331Z,14.35
2022-10-05T19:48:14.002Z,14.25
2022-10-05T19:50:52.974Z,12.63
2022-10-05T19:53:31.632Z,17.88
2022-10-05T19:56:17.316Z,17.73
2022-10-05T19:58:44.667Z,14.82
2022-10-05T20:01:12.703Z,15.02
2022-10-05T20:03:40.989Z,17.23
2022-10-05T20:06:08.904Z,15.40
